Close Search

Base
°C
Summit
°C
24hr Snow
cm

WEATHER AT A GLANCE

Image Slideshow

Gnorm the Powder Gnome

Revelstoke Mountain Resort -  Gnorm the Powder Gnome Webcam

RMR Village

Revelstoke Mountain Resort -  RMR Village Webcam

Top of The Stoke

Revelstoke Mountain Resort -  Top of The Stoke Webcam

Top of Stellar

Revelstoke Mountain Resort -  Top of Stellar Webcam

Mackenzie Outpost

Revelstoke Mountain Resort -  Mackenzie Outpost Webcam

Ripper

Revelstoke Mountain Resort -  Ripper Webcam
New Snow
cm
24hr Snow
cm
48hr Snow
cm
Base
°C
Summit
°C
Wind (Summit)
km/h

Today's Forecast

Subpeak Weather

Time Avg. Air Temp Dew Point Avg. Rel Humidity Avg. 2 Min Wind Speed Max Gust Velocity MGV Time MGV Direction Avg. Spot Wind Velocity
2022-12-03 01:25:00-17° C-17° C100%22 km/h24 km/h01:22:00S21 km/h
00:25:00-17° C-17° C100%15 km/h18 km/h00:21:00S15 km/h
23:25:00-17° C-17° C100%30 km/h32 km/h23:23:00SE30 km/h
22:25:00-17° C-17° C100%27 km/h29 km/h22:24:00SE27 km/h
21:25:00-17° C-17° C100%27 km/h30 km/h21:23:00S27 km/h
20:25:00-18° C-18° C100%31 km/h36 km/h20:22:00S30 km/h
19:25:00-18° C-18° C100%29 km/h31 km/h19:24:00S28 km/h
18:25:00-18° C-18° C100%30 km/h35 km/h18:22:00S32 km/h
17:25:00-18° C-18° C100%28 km/h32 km/h17:25:00S27 km/h
16:25:00-18° C-18° C100%26 km/h29 km/h16:23:00S27 km/h
15:25:00-18° C-18° C100%24 km/h27 km/h15:21:00S25 km/h
14:25:00-19° C-19° C100%25 km/h27 km/h14:25:00S26 km/h
13:25:00-19° C-19° C100%26 km/h30 km/h13:21:00SE27 km/h
12:25:00-19° C-19° C100%29 km/h34 km/h12:24:00SE30 km/h
11:25:00-19° C-19° C100%25 km/h28 km/h11:23:00SE25 km/h
10:25:00-20° C-20° C100%26 km/h29 km/h10:21:00SE27 km/h
09:25:00-21° C-21° C100%24 km/h25 km/h09:23:00S24 km/h
08:25:00-20° C-20° C100%21 km/h24 km/h08:24:00S21 km/h
07:25:00-20° C-21° C100%1 km/h3 km/h07:21:00W2 km/h
06:25:00-20° C-20° C100%7 km/h9 km/h06:25:00W7 km/h
05:25:00-20° C-20° C100%10 km/h15 km/h05:21:00W11 km/h
04:25:00-20° C-20° C100%10 km/h13 km/h04:22:00W10 km/h
03:25:00-20° C-20° C100%8 km/h11 km/h03:23:00W9 km/h
02:25:00-21° C-21° C100%7 km/h9 km/h02:23:00W7 km/h
Time Avg. Air Temp Dew Point Avg. Rel Humidity Avg. 2 Min Wind Speed Max Gust Velocity MGV Time MGV Direction Avg. Spot Wind Velocity
2022-12-03 01:25:00-17° C-17° C100%22 km/h24 km/h01:22:00S21 km/h
01:20:00-17° C-17° C100%22 km/h24 km/h01:20:00S22 km/h
01:15:00-17° C-17° C100%21 km/h23 km/h01:15:00S21 km/h
01:10:00-17° C-17° C100%19 km/h22 km/h01:06:00S19 km/h
01:05:00-17° C-17° C100%20 km/h25 km/h01:01:00SW21 km/h
01:00:00-17° C-17° C100%20 km/h23 km/h01:00:00SW21 km/h
00:55:00-17° C-17° C100%18 km/h20 km/h00:55:00S17 km/h
00:50:00-17° C-17° C100%16 km/h17 km/h00:49:00S16 km/h
00:45:00-17° C-17° C100%15 km/h18 km/h00:43:00S15 km/h
00:40:00-17° C-17° C100%17 km/h20 km/h00:40:00SW17 km/h
00:35:00-17° C-17° C100%17 km/h18 km/h00:31:00S17 km/h
00:30:00-17° C-17° C100%18 km/h19 km/h00:28:00S17 km/h
00:25:00-17° C-17° C100%15 km/h18 km/h00:21:00S15 km/h